Time;durP1;ratioP1;P1;durP2;ratioP2;P2;SDS_P1;SDS_P2;PMS_P1;PMS_P2;Temp;Humidity;BMP_temperature;BMP_pressure;BME280_temperature;BME280_humidity;BME280_pressure;Samples;Min_cycle;Max_cycle;Signal;HPM_P1;HPM_P2
2023/09/15 00:00:17;;;;;;;6.47;4.38;;;11.60;99.90;;;;;;5014187;28;20041;-87
2023/09/15 00:02:43;;;;;;;8.82;4.20;;;11.60;99.90;;;;;;4997359;28;20068;-87
2023/09/15 00:05:10;;;;;;;7.63;3.95;;;11.60;99.90;;;;;;5014565;28;20481;-87
2023/09/15 00:07:36;;;;;;;5.70;4.43;;;11.60;99.90;;;;;;5018034;28;20481;-88
2023/09/15 00:10:11;;;;;;;6.95;3.80;;;11.60;99.90;;;;;;5034598;28;20479;-87
2023/09/15 00:12:42;;;;;;;5.43;4.53;;;11.60;99.90;;;;;;5016772;28;20050;-87
2023/09/15 00:15:10;;;;;;;5.18;4.20;;;11.50;99.90;;;;;;5030541;28;20049;-87
2023/09/15 00:17:37;;;;;;;5.95;4.20;;;11.50;99.90;;;;;;5009045;28;20806;-87
2023/09/15 00:20:12;;;;;;;4.68;4.15;;;11.50;99.90;;;;;;5017369;28;20128;-87
2023/09/15 00:22:50;;;;;;;6.75;4.30;;;11.50;99.90;;;;;;5033804;28;20421;-87
2023/09/15 00:25:22;;;;;;;7.53;4.03;;;11.50;99.90;;;;;;5002124;28;20120;-88
2023/09/15 00:27:52;;;;;;;7.57;4.45;;;11.50;99.90;;;;;;5017140;28;20033;-88
2023/09/15 00:30:19;;;;;;;7.22;4.88;;;11.50;99.90;;;;;;5008729;28;20493;-88
2023/09/15 00:32:47;;;;;;;7.63;3.88;;;11.50;99.90;;;;;;5016048;28;20065;-87
2023/09/15 00:35:16;;;;;;;6.85;4.22;;;11.50;99.90;;;;;;5031862;28;20041;-87
2023/09/15 00:37:43;;;;;;;9.60;4.47;;;11.50;99.90;;;;;;5031932;28;20044;-87
2023/09/15 00:40:10;;;;;;;7.55;4.35;;;11.60;99.90;;;;;;5010062;28;20081;-87
2023/09/15 00:42:37;;;;;;;5.38;4.05;;;11.60;99.90;;;;;;5007424;28;20511;-87
2023/09/15 00:45:06;;;;;;;6.22;4.13;;;11.60;99.90;;;;;;5015676;28;20055;-86
2023/09/15 00:47:35;;;;;;;5.90;4.50;;;11.60;99.90;;;;;;4996959;28;20049;-87
2023/09/15 00:50:03;;;;;;;7.28;4.57;;;11.50;99.90;;;;;;5011548;28;20077;-87
2023/09/15 00:52:30;;;;;;;9.75;4.70;;;11.50;99.90;;;;;;4983457;28;20097;-87
2023/09/15 00:54:56;;;;;;;5.05;4.20;;;11.40;99.90;;;;;;5000198;28;20048;-87
2023/09/15 00:57:24;;;;;;;9.13;4.50;;;11.40;99.90;;;;;;4999580;28;20116;-87
2023/09/15 00:59:51;;;;;;;4.55;3.90;;;11.40;99.90;;;;;;5000134;28;20459;-87
2023/09/15 01:02:17;;;;;;;5.22;4.18;;;11.40;99.90;;;;;;5032480;28;20045;-87
2023/09/15 01:04:44;;;;;;;6.68;4.00;;;11.30;99.90;;;;;;5027026;28;20510;-87
2023/09/15 01:07:10;;;;;;;6.88;3.83;;;11.40;99.90;;;;;;4999518;28;20132;-86
2023/09/15 01:09:36;;;;;;;7.57;3.95;;;11.30;99.90;;;;;;5032259;28;20121;-87
2023/09/15 01:12:04;;;;;;;4.93;3.80;;;11.30;99.90;;;;;;5032751;28;20045;-87
2023/09/15 01:14:30;;;;;;;8.57;3.97;;;11.30;99.90;;;;;;5000142;28;21569;-87
2023/09/15 01:17:23;;;;;;;9.02;4.32;;;11.20;99.90;;;;;;5014863;28;20040;-88
2023/09/15 01:20:11;;;;;;;8.05;4.70;;;11.20;99.90;;;;;;5032243;28;20509;-87
2023/09/15 01:22:55;;;;;;;4.80;4.30;;;11.10;99.90;;;;;;5012968;28;20048;-88
2023/09/15 01:25:30;;;;;;;8.63;5.10;;;11.10;99.90;;;;;;5041250;28;20071;-86
2023/09/15 01:28:04;;;;;;;7.60;4.68;;;11.10;99.90;;;;;;5030110;28;20041;-87
2023/09/15 01:30:31;;;;;;;4.60;3.65;;;11.10;99.90;;;;;;5030856;28;20132;-87
2023/09/15 01:32:59;;;;;;;8.13;4.65;;;11.10;99.90;;;;;;5012216;28;20080;-88
2023/09/15 01:35:25;;;;;;;5.03;4.50;;;11.10;99.90;;;;;;5032191;28;20465;-88
2023/09/15 01:37:51;;;;;;;7.25;4.95;;;11.10;99.90;;;;;;5015491;28;20080;-88
2023/09/15 01:40:17;;;;;;;5.40;4.43;;;11.10;99.90;;;;;;4997324;28;20057;-87
2023/09/15 01:42:46;;;;;;;5.28;4.25;;;11.10;99.90;;;;;;5008137;28;20460;-88
2023/09/15 01:45:12;;;;;;;8.35;4.07;;;11.10;99.90;;;;;;5031898;28;20044;-88
2023/09/15 01:47:39;;;;;;;7.78;4.68;;;11.10;99.90;;;;;;4999664;28;20132;-87
2023/09/15 01:50:07;;;;;;;6.72;4.28;;;11.10;99.90;;;;;;5015477;28;20049;-88
2023/09/15 01:52:33;;;;;;;6.22;4.50;;;11.10;99.90;;;;;;5015490;28;20037;-87
2023/09/15 01:55:00;;;;;;;8.00;4.80;;;11.00;99.90;;;;;;5015371;28;20072;-88
2023/09/15 01:57:26;;;;;;;7.53;4.20;;;11.00;99.90;;;;;;4996801;28;20076;-87
2023/09/15 01:59:52;;;;;;;10.00;4.90;;;11.00;99.90;;;;;;4997253;28;20417;-87
2023/09/15 02:02:17;;;;;;;8.55;4.72;;;11.00;99.90;;;;;;5015308;28;20075;-87
2023/09/15 02:04:43;;;;;;;7.72;4.55;;;11.00;99.90;;;;;;4998929;28;20037;-87
2023/09/15 02:07:09;;;;;;;7.10;4.13;;;11.00;99.90;;;;;;5031586;28;20048;-88
2023/09/15 02:09:35;;;;;;;6.80;4.40;;;11.00;99.90;;;;;;4998643;28;20045;-87
2023/09/15 02:12:00;;;;;;;7.10;4.55;;;11.00;99.90;;;;;;4999049;28;20034;-87
2023/09/15 02:14:26;;;;;;;7.57;4.63;;;10.90;99.90;;;;;;4998548;28;20040;-87
2023/09/15 02:16:52;;;;;;;5.47;4.23;;;10.90;99.90;;;;;;5015061;28;20052;-87
2023/09/15 02:19:18;;;;;;;8.52;4.63;;;10.80;99.90;;;;;;4998659;28;20041;-87
2023/09/15 02:21:44;;;;;;;8.30;4.75;;;10.90;99.90;;;;;;5029494;28;20041;-87
2023/09/15 02:24:10;;;;;;;8.65;4.38;;;10.80;99.90;;;;;;5016609;28;20409;-87
2023/09/15 02:26:36;;;;;;;8.82;4.70;;;10.80;99.90;;;;;;5004664;28;20072;-87
2023/09/15 02:29:02;;;;;;;4.87;4.37;;;10.70;99.90;;;;;;5039956;28;20102;-86
2023/09/15 02:31:30;;;;;;;7.93;4.87;;;10.70;99.90;;;;;;4998473;28;20390;-87
2023/09/15 02:33:59;;;;;;;6.47;4.77;;;10.70;99.90;;;;;;5015112;28;20033;-87
2023/09/15 02:36:26;;;;;;;7.47;4.73;;;10.70;99.90;;;;;;4991086;28;20153;-86
2023/09/15 02:38:54;;;;;;;6.10;4.30;;;10.70;99.90;;;;;;5005006;28;20042;-87
2023/09/15 02:41:20;;;;;;;7.63;4.60;;;10.70;99.90;;;;;;5012403;28;20057;-87
2023/09/15 02:43:47;;;;;;;6.23;4.20;;;10.60;99.90;;;;;;4991839;28;20092;-87
2023/09/15 02:46:13;;;;;;;6.47;4.22;;;10.70;99.90;;;;;;5013798;28;20060;-87
2023/09/15 02:48:39;;;;;;;5.82;4.10;;;10.60;99.90;;;;;;5014115;28;20033;-87
2023/09/15 02:51:05;;;;;;;6.33;4.60;;;10.70;99.90;;;;;;5009335;28;20045;-88
2023/09/15 02:53:30;;;;;;;9.67;5.00;;;10.70;99.90;;;;;;4997810;28;20042;-87
2023/09/15 02:56:00;;;;;;;7.68;4.47;;;10.60;99.90;;;;;;4997982;28;20094;-87
2023/09/15 02:58:27;;;;;;;7.20;4.30;;;10.60;99.90;;;;;;5030387;28;20114;-87
2023/09/15 03:00:53;;;;;;;5.93;4.75;;;10.60;99.90;;;;;;4998395;28;20528;-87
2023/09/15 03:03:23;;;;;;;7.33;4.33;;;10.60;99.90;;;;;;5030533;28;20077;-87
2023/09/15 03:05:49;;;;;;;7.27;4.60;;;10.60;99.90;;;;;;4994212;28;20045;-87
2023/09/15 03:08:14;;;;;;;7.93;4.27;;;10.70;99.90;;;;;;4981839;28;20037;-87
2023/09/15 03:10:40;;;;;;;4.03;3.60;;;10.60;99.90;;;;;;5014390;28;20037;-87
2023/09/15 03:13:06;;;;;;;6.47;4.10;;;10.60;99.90;;;;;;5013843;28;20048;-87
2023/09/15 03:15:39;;;;;;;7.03;4.30;;;10.60;99.90;;;;;;5013823;28;20048;-87
2023/09/15 03:18:05;;;;;;;5.13;4.10;;;10.60;99.90;;;;;;5014000;28;20073;-88
2023/09/15 03:20:30;;;;;;;7.83;4.63;;;10.60;99.90;;;;;;5014112;28;20104;-87
2023/09/15 03:22:56;;;;;;;6.60;4.50;;;10.50;99.90;;;;;;5014008;28;20128;-87
2023/09/15 03:25:22;;;;;;;6.27;4.27;;;10.50;99.90;;;;;;4997523;28;20128;-87
2023/09/15 03:27:48;;;;;;;7.70;4.60;;;10.50;99.90;;;;;;5014434;28;20034;-87
2023/09/15 03:30:13;;;;;;;6.70;4.50;;;10.50;99.90;;;;;;5030464;28;20041;-88
2023/09/15 03:32:39;;;;;;;4.97;4.47;;;10.40;99.90;;;;;;4994524;28;20041;-88
2023/09/15 03:35:05;;;;;;;5.43;4.37;;;10.40;99.90;;;;;;5001303;28;20504;-88
2023/09/15 03:37:32;;;;;;;6.20;4.83;;;10.40;99.90;;;;;;4997876;28;20124;-88
2023/09/15 03:39:58;;;;;;;6.50;4.23;;;10.40;99.90;;;;;;5031087;28;20108;-87
2023/09/15 03:42:24;;;;;;;7.23;4.83;;;10.40;99.90;;;;;;5018179;28;20128;-87
2023/09/15 03:44:50;;;;;;;7.30;5.00;;;10.40;99.90;;;;;;5000700;28;20037;-85
2023/09/15 03:47:16;;;;;;;4.90;4.40;;;10.40;99.90;;;;;;5010837;28;20037;-88
2023/09/15 03:49:42;;;;;;;7.70;4.50;;;10.30;99.90;;;;;;5002075;28;20582;-87
2023/09/15 03:52:08;;;;;;;6.70;4.13;;;10.30;99.90;;;;;;4988364;28;20044;-88
2023/09/15 03:54:33;;;;;;;6.57;4.43;;;10.30;99.90;;;;;;5014461;28;20497;-88
2023/09/15 03:56:59;;;;;;;7.33;4.97;;;10.30;99.90;;;;;;5017277;28;20311;-88
2023/09/15 03:59:25;;;;;;;6.63;4.93;;;10.20;99.90;;;;;;4996438;28;20099;-88
2023/09/15 04:01:51;;;;;;;7.10;4.77;;;10.20;99.90;;;;;;5017036;28;20056;-88
2023/09/15 04:04:16;;;;;;;6.23;4.90;;;10.20;99.90;;;;;;5016838;28;20455;-87
2023/09/15 04:06:43;;;;;;;6.77;4.57;;;10.20;99.90;;;;;;5000494;28;20052;-88
2023/09/15 04:09:15;;;;;;;8.47;5.47;;;10.20;99.90;;;;;;5033572;28;20400;-88
2023/09/15 04:11:41;;;;;;;8.25;5.53;;;10.20;99.90;;;;;;5001655;28;20042;-87
2023/09/15 04:14:07;;;;;;;6.83;4.90;;;10.20;99.90;;;;;;5017375;28;20132;-87
2023/09/15 04:16:33;;;;;;;6.03;4.63;;;10.20;99.90;;;;;;5017056;28;20045;-88
2023/09/15 04:18:59;;;;;;;6.37;4.73;;;10.20;99.90;;;;;;5017113;28;20073;-88
2023/09/15 04:21:25;;;;;;;7.17;5.10;;;10.20;99.90;;;;;;4997823;28;20145;-88
2023/09/15 04:23:50;;;;;;;7.03;5.40;;;10.20;99.90;;;;;;5014065;28;20404;-87
2023/09/15 04:26:16;;;;;;;5.93;4.50;;;10.20;99.90;;;;;;5000506;28;20456;-87
2023/09/15 04:28:42;;;;;;;8.30;4.83;;;10.20;99.90;;;;;;5016653;28;20041;-87
2023/09/15 04:31:08;;;;;;;6.87;4.87;;;10.10;99.90;;;;;;4998252;28;20034;-87
2023/09/15 04:33:33;;;;;;;6.67;5.60;;;10.10;99.90;;;;;;4998252;28;20045;-88
2023/09/15 04:35:59;;;;;;;6.47;5.33;;;10.10;99.90;;;;;;4996228;28;20030;-87
2023/09/15 04:38:25;;;;;;;7.57;5.60;;;10.10;99.90;;;;;;4996152;28;20490;-87
2023/09/15 04:40:52;;;;;;;7.47;5.77;;;10.10;99.90;;;;;;4979165;28;20045;-87
2023/09/15 04:43:18;;;;;;;6.30;5.70;;;10.10;99.90;;;;;;5009678;28;20475;-87
2023/09/15 04:45:44;;;;;;;7.17;5.00;;;10.10;99.90;;;;;;5009539;28;20038;-87
2023/09/15 04:48:10;;;;;;;12.60;5.93;;;10.10;99.90;;;;;;5012795;28;20100;-88
2023/09/15 04:50:36;;;;;;;8.47;6.13;;;10.10;99.90;;;;;;5010322;28;20603;-88
2023/09/15 04:53:07;;;;;;;6.37;5.10;;;10.10;99.90;;;;;;4994841;28;20044;-87
2023/09/15 04:55:33;;;;;;;6.87;5.40;;;10.10;99.90;;;;;;4997188;28;20038;-86
2023/09/15 04:57:59;;;;;;;7.47;5.10;;;10.10;99.90;;;;;;5027178;28;20106;-87
2023/09/15 05:00:27;;;;;;;10.70;6.43;;;10.10;99.90;;;;;;5009155;28;20490;-87
2023/09/15 05:02:53;;;;;;;8.07;6.03;;;10.10;99.90;;;;;;5009791;28;20049;-87
2023/09/15 05:05:19;;;;;;;7.33;6.00;;;10.10;99.90;;;;;;5029898;28;20128;-88
2023/09/15 05:07:45;;;;;;;7.73;6.40;;;10.10;99.90;;;;;;5009872;28;20048;-88
2023/09/15 05:10:11;;;;;;;8.37;6.30;;;10.10;99.90;;;;;;5010940;28;20045;-88
2023/09/15 05:12:37;;;;;;;10.53;6.97;;;10.20;99.90;;;;;;5012750;28;20087;-88
2023/09/15 05:15:03;;;;;;;10.23;6.53;;;10.20;99.90;;;;;;5010441;28;20044;-86
2023/09/15 05:17:29;;;;;;;11.13;7.27;;;10.20;99.90;;;;;;4997218;28;20037;-88
2023/09/15 05:19:56;;;;;;;8.70;6.07;;;10.20;99.90;;;;;;5013153;28;20044;-87
2023/09/15 05:22:22;;;;;;;9.40;6.40;;;10.30;99.90;;;;;;5012550;28;20041;-87
2023/09/15 05:24:48;;;;;;;10.40;7.00;;;10.30;99.90;;;;;;4997359;28;20481;-87
2023/09/15 05:27:14;;;;;;;8.60;6.90;;;10.30;99.90;;;;;;5030324;28;20316;-87
2023/09/15 05:29:40;;;;;;;7.57;6.50;;;10.30;99.90;;;;;;5012958;28;20073;-87
2023/09/15 05:32:05;;;;;;;9.00;7.13;;;10.30;99.90;;;;;;5013610;28;20072;-87
2023/09/15 05:34:31;;;;;;;9.87;7.20;;;10.30;99.90;;;;;;5013069;28;20040;-87
2023/09/15 05:36:57;;;;;;;9.00;6.00;;;10.30;99.90;;;;;;5010665;28;20032;-87
2023/09/15 05:39:23;;;;;;;9.17;6.47;;;10.30;99.90;;;;;;5010006;28;20578;-88
2023/09/15 05:41:49;;;;;;;7.43;6.30;;;10.30;99.90;;;;;;5029813;28;20058;-88
2023/09/15 05:44:16;;;;;;;11.57;7.60;;;10.40;99.90;;;;;;5030568;28;20559;-88
2023/09/15 05:46:43;;;;;;;9.60;7.93;;;10.40;99.90;;;;;;5013841;28;20051;-87
2023/09/15 05:49:08;;;;;;;11.27;7.20;;;10.40;99.90;;;;;;5035315;28;20676;-86
2023/09/15 05:51:34;;;;;;;9.57;6.93;;;10.40;99.90;;;;;;5015826;28;20049;-87
2023/09/15 05:54:00;;;;;;;9.10;7.60;;;10.40;99.90;;;;;;5020711;28;20041;-88
2023/09/15 05:56:26;;;;;;;9.37;7.33;;;10.40;99.90;;;;;;5012103;28;20101;-87
2023/09/15 05:58:51;;;;;;;11.53;7.23;;;10.50;99.90;;;;;;4998640;28;20120;-87
2023/09/15 06:01:20;;;;;;;12.07;7.60;;;10.50;99.90;;;;;;5004769;28;20045;-87
2023/09/15 06:03:48;;;;;;;11.20;8.20;;;10.60;99.90;;;;;;4992609;28;20033;-85
2023/09/15 06:06:15;;;;;;;11.47;7.80;;;10.60;99.90;;;;;;5032488;28;20620;-86
2023/09/15 06:08:41;;;;;;;11.03;7.63;;;10.70;99.90;;;;;;5012834;28;20033;-88
2023/09/15 06:11:07;;;;;;;11.03;7.63;;;10.70;99.90;;;;;;4998509;28;20102;-87
2023/09/15 06:13:34;;;;;;;9.10;7.47;;;10.80;99.90;;;;;;4982770;28;20050;-86
2023/09/15 06:16:00;;;;;;;10.17;7.57;;;10.80;99.90;;;;;;5015313;28;20044;-87
2023/09/15 06:18:25;;;;;;;9.03;6.63;;;10.90;99.90;;;;;;4998977;28;20038;-87
2023/09/15 06:20:55;;;;;;;10.43;7.83;;;10.90;99.90;;;;;;4999221;28;20099;-89
2023/09/15 06:23:21;;;;;;;10.03;7.47;;;10.90;99.90;;;;;;4997344;28;20042;-87
2023/09/15 06:25:47;;;;;;;10.70;7.53;;;11.00;99.90;;;;;;4996127;28;20429;-87
2023/09/15 06:28:12;;;;;;;9.67;7.20;;;11.00;99.90;;;;;;5012936;28;20041;-86
2023/09/15 06:30:38;;;;;;;10.53;7.80;;;11.00;99.90;;;;;;5030676;28;20037;-87
2023/09/15 06:33:04;;;;;;;12.30;8.60;;;11.10;99.90;;;;;;5014423;28;20123;-88
2023/09/15 06:35:30;;;;;;;11.73;7.60;;;11.20;99.90;;;;;;5024913;28;20116;-89
2023/09/15 06:37:55;;;;;;;10.40;7.83;;;11.20;99.90;;;;;;5005509;28;20033;-87
2023/09/15 06:40:21;;;;;;;15.00;8.00;;;11.20;99.90;;;;;;5011628;28;20513;-87
2023/09/15 06:42:47;;;;;;;12.20;7.90;;;11.30;99.90;;;;;;5013761;28;20049;-89
2023/09/15 06:45:13;;;;;;;10.83;7.60;;;11.40;99.90;;;;;;5031160;28;20042;-88
2023/09/15 06:47:38;;;;;;;11.65;8.15;;;11.40;99.90;;;;;;5014184;28;20378;-86
2023/09/15 06:50:05;;;;;;;9.05;7.25;;;11.40;99.90;;;;;;5014462;28;20052;-87
2023/09/15 06:52:31;;;;;;;9.43;7.28;;;11.50;99.90;;;;;;5013665;28;20045;-88
2023/09/15 06:54:57;;;;;;;12.25;7.47;;;11.60;99.90;;;;;;5014601;28;20064;-88
2023/09/15 06:57:23;;;;;;;10.95;7.85;;;11.60;99.90;;;;;;4998539;28;20048;-86
2023/09/15 06:59:49;;;;;;;10.75;7.20;;;11.70;99.90;;;;;;4998155;28;20481;-87
2023/09/15 07:02:15;;;;;;;10.27;7.85;;;11.80;99.90;;;;;;5014326;28;20083;-87
2023/09/15 07:04:43;;;;;;;9.68;7.15;;;11.80;99.90;;;;;;4997742;28;20041;-86
2023/09/15 07:07:10;;;;;;;9.82;7.40;;;11.90;99.90;;;;;;5014530;28;20132;-87
2023/09/15 07:09:36;;;;;;;10.02;6.93;;;12.00;99.90;;;;;;5031211;28;20124;-88
2023/09/15 07:12:03;;;;;;;11.75;7.38;;;12.10;99.90;;;;;;5014361;28;20124;-87
2023/09/15 07:14:29;;;;;;;9.38;7.03;;;12.10;99.90;;;;;;5014618;28;20125;-88
2023/09/15 07:16:55;;;;;;;9.65;7.40;;;12.20;99.90;;;;;;5012775;28;20121;-88
2023/09/15 07:19:21;;;;;;;9.07;7.00;;;12.30;99.90;;;;;;5012293;28;20112;-87
2023/09/15 07:21:47;;;;;;;9.55;7.05;;;12.40;99.90;;;;;;5018625;28;20037;-87
2023/09/15 07:24:13;;;;;;;12.07;7.53;;;12.40;99.90;;;;;;5018349;28;20045;-87
2023/09/15 07:26:38;;;;;;;10.30;7.13;;;12.50;99.90;;;;;;5018097;28;20739;-85
2023/09/15 07:29:04;;;;;;;12.93;7.65;;;12.60;99.90;;;;;;4999690;28;20080;-87
2023/09/15 07:31:34;;;;;;;10.48;7.43;;;12.70;99.90;;;;;;4992193;28;20541;-88
2023/09/15 07:34:00;;;;;;;9.70;7.68;;;12.80;99.90;;;;;;5000999;28;20061;-87
2023/09/15 07:36:26;;;;;;;9.68;7.20;;;12.90;99.90;;;;;;5018580;28;20087;-89
2023/09/15 07:38:52;;;;;;;10.63;7.78;;;12.90;99.90;;;;;;5030194;28;20084;-90
2023/09/15 07:41:19;;;;;;;8.68;6.93;;;13.00;99.90;;;;;;5034206;28;20124;-87
2023/09/15 07:43:45;;;;;;;7.78;6.65;;;13.10;99.90;;;;;;5018308;28;20091;-87
2023/09/15 07:46:13;;;;;;;12.70;7.20;;;13.20;99.90;;;;;;5017812;28;20045;-89
2023/09/15 07:48:41;;;;;;;8.02;6.72;;;13.30;99.90;;;;;;5016238;28;20493;-88
2023/09/15 07:51:06;;;;;;;8.25;6.57;;;13.40;99.90;;;;;;4999961;28;20046;-88
2023/09/15 07:53:32;;;;;;;9.68;6.82;;;13.50;99.90;;;;;;4995933;28;21770;-87
2023/09/15 07:55:58;;;;;;;8.65;6.47;;;13.60;99.90;;;;;;5024758;28;20040;-87
2023/09/15 07:58:24;;;;;;;10.10;7.03;;;13.70;99.90;;;;;;5017314;28;20464;-87
2023/09/15 08:00:50;;;;;;;9.50;6.45;;;13.90;99.90;;;;;;5016992;28;20034;-88
2023/09/15 08:03:16;;;;;;;10.15;6.80;;;14.00;99.90;;;;;;5002343;28;20041;-88
2023/09/15 08:05:42;;;;;;;12.02;6.85;;;14.10;99.90;;;;;;5010274;28;20042;-87
2023/09/15 08:08:08;;;;;;;7.90;6.90;;;14.20;99.90;;;;;;5033809;28;20106;-87
2023/09/15 08:10:34;;;;;;;10.48;6.90;;;14.20;99.90;;;;;;5032454;28;20045;-87
2023/09/15 08:13:00;;;;;;;11.25;6.68;;;14.30;99.90;;;;;;5017083;28;20041;-89
2023/09/15 08:15:25;;;;;;;7.28;6.35;;;14.40;99.90;;;;;;5010592;28;20148;-88
2023/09/15 08:17:53;;;;;;;7.53;6.63;;;14.50;99.90;;;;;;5013753;28;20127;-89
2023/09/15 08:20:19;;;;;;;11.15;6.75;;;14.60;99.90;;;;;;5013782;28;20180;-86
2023/09/15 08:22:45;;;;;;;8.70;6.60;;;14.70;99.90;;;;;;5030846;28;20397;-86
2023/09/15 08:25:11;;;;;;;10.38;7.20;;;14.90;99.90;;;;;;5027818;28;20044;-88
2023/09/15 08:27:38;;;;;;;10.75;7.18;;;15.00;99.90;;;;;;5026402;28;20060;-87
2023/09/15 08:30:05;;;;;;;9.05;6.90;;;15.10;99.90;;;;;;5019561;28;20069;-88
2023/09/15 08:32:34;;;;;;;13.38;7.68;;;15.20;99.90;;;;;;5016598;28;20124;-88
2023/09/15 08:35:00;;;;;;;11.45;6.93;;;15.40;99.90;;;;;;5001875;28;20436;-88
2023/09/15 08:37:25;;;;;;;9.60;6.57;;;15.40;99.90;;;;;;4997425;28;20034;-88
2023/09/15 08:39:51;;;;;;;8.27;6.20;;;15.60;99.90;;;;;;5025156;28;20141;-88
2023/09/15 08:42:23;;;;;;;7.55;5.88;;;15.70;99.90;;;;;;5014752;28;20111;-89
2023/09/15 08:44:49;;;;;;;10.15;6.32;;;15.80;99.90;;;;;;5017520;28;20041;-91
2023/09/15 08:47:17;;;;;;;8.88;6.40;;;16.00;99.90;;;;;;5015313;28;20051;-89
2023/09/15 08:49:44;;;;;;;10.45;6.18;;;16.10;99.90;;;;;;5017727;28;20042;-88
2023/09/15 08:52:11;;;;;;;10.45;5.82;;;16.20;99.90;;;;;;5032771;28;20041;-88
2023/09/15 08:54:37;;;;;;;8.80;5.72;;;16.20;99.90;;;;;;5000538;28;20073;-88
2023/09/15 08:57:03;;;;;;;7.82;6.15;;;16.30;99.90;;;;;;5025370;28;21908;-88
2023/09/15 08:59:31;;;;;;;9.30;5.53;;;16.40;99.90;;;;;;5016150;28;20116;-88
2023/09/15 09:01:57;;;;;;;10.05;6.03;;;16.50;99.90;;;;;;4997601;28;20140;-90
2023/09/15 09:04:23;;;;;;;8.95;6.22;;;16.70;99.90;;;;;;5001134;28;20504;-88
2023/09/15 09:06:49;;;;;;;6.65;5.78;;;16.80;99.90;;;;;;4995702;28;20045;-88
2023/09/15 09:09:16;;;;;;;7.10;4.43;;;16.90;99.90;;;;;;4983823;28;20037;-90
2023/09/15 09:11:42;;;;;;;7.15;5.00;;;16.90;99.90;;;;;;5015198;28;20407;-89
2023/09/15 09:14:11;;;;;;;7.78;4.82;;;17.00;99.90;;;;;;5016144;28;20039;-88
2023/09/15 09:16:42;;;;;;;12.32;5.55;;;17.10;99.90;;;;;;5000172;28;20033;-88
2023/09/15 09:19:08;;;;;;;9.15;5.45;;;17.20;99.90;;;;;;5014751;28;20041;-88
2023/09/15 09:21:37;;;;;;;6.63;4.90;;;17.30;99.90;;;;;;5029782;28;20511;-90
2023/09/15 09:24:03;;;;;;;9.73;4.57;;;17.40;99.90;;;;;;5017187;28;20045;-90
2023/09/15 09:26:29;;;;;;;12.20;4.78;;;17.50;99.90;;;;;;5002252;28;20049;-92
2023/09/15 09:28:57;;;;;;;6.35;4.80;;;17.60;99.90;;;;;;5015336;28;20068;-91
2023/09/15 09:31:24;;;;;;;7.15;4.22;;;17.70;99.90;;;;;;5009359;28;20049;-92
2023/09/15 09:33:50;;;;;;;7.15;4.47;;;17.80;99.90;;;;;;5018637;28;20378;-90
2023/09/15 09:36:17;;;;;;;8.05;4.90;;;17.90;99.90;;;;;;5017227;28;20613;-89
2023/09/15 09:38:53;;;;;;;6.65;4.38;;;18.00;99.90;;;;;;5016601;28;20052;-92
2023/09/15 09:41:21;;;;;;;8.18;4.43;;;18.10;99.90;;;;;;5016627;28;20061;-90
2023/09/15 09:43:48;;;;;;;7.50;4.57;;;18.20;99.90;;;;;;5033500;28;20041;-91
2023/09/15 09:46:21;;;;;;;7.20;4.43;;;18.30;99.90;;;;;;5019327;28;20080;-91
2023/09/15 09:48:48;;;;;;;6.78;4.50;;;18.40;99.90;;;;;;5034630;28;20382;-90
2023/09/15 09:51:16;;;;;;;8.73;5.25;;;18.50;99.90;;;;;;5033560;28;20052;-90
2023/09/15 09:53:41;;;;;;;5.65;4.72;;;18.60;99.90;;;;;;5017445;28;20111;-91
2023/09/15 09:56:07;;;;;;;7.65;5.35;;;18.60;99.90;;;;;;5000749;28;20049;-89
2023/09/15 09:58:35;;;;;;;10.88;5.35;;;18.70;99.90;;;;;;5014923;28;20038;-89
2023/09/15 10:01:09;;;;;;;6.45;5.30;;;18.90;99.90;;;;;;5033717;28;20046;-89
2023/09/15 10:03:35;;;;;;;6.47;4.18;;;18.90;99.90;;;;;;5017023;28;20607;-91
2023/09/15 10:06:03;;;;;;;6.32;4.38;;;19.00;99.90;;;;;;5018124;28;20132;-89
2023/09/15 10:08:30;;;;;;;6.88;4.85;;;19.00;99.90;;;;;;5000586;28;20527;-89
2023/09/15 10:10:56;;;;;;;6.80;4.40;;;19.10;99.90;;;;;;5033741;28;20033;-88
2023/09/15 10:13:23;;;;;;;6.03;3.92;;;19.20;99.90;;;;;;5016394;28;20060;-90
2023/09/15 10:15:51;;;;;;;5.63;4.15;;;19.30;99.90;;;;;;5016534;28;20131;-90
2023/09/15 10:18:20;;;;;;;7.10;3.80;;;19.40;99.90;;;;;;5008641;28;20440;-89
2023/09/15 10:20:52;;;;;;;6.93;4.35;;;19.40;99.90;;;;;;5017218;28;20037;-89
2023/09/15 10:23:19;;;;;;;6.53;3.80;;;19.40;99.90;;;;;;5015232;28;20068;-92
2023/09/15 10:25:52;;;;;;;6.30;4.05;;;19.50;99.90;;;;;;5016553;28;20049;-91
2023/09/15 10:28:19;;;;;;;5.53;3.85;;;19.40;99.90;;;;;;5016906;28;20123;-89
2023/09/15 10:30:46;;;;;;;6.40;3.50;;;19.50;99.90;;;;;;5014395;28;20064;-82
2023/09/15 10:33:12;;;;;;;6.03;3.55;;;19.50;99.90;;;;;;5013583;28;20049;-81
2023/09/15 10:35:45;;;;;;;5.15;3.92;;;19.70;99.90;;;;;;5031986;28;20038;-82
2023/09/15 10:38:11;;;;;;;5.07;3.58;;;19.70;99.90;;;;;;4998679;28;20052;-82
2023/09/15 10:40:48;;;;;;;5.72;3.70;;;19.80;99.90;;;;;;5009393;28;20046;-82
2023/09/15 10:43:19;;;;;;;6.25;3.50;;;19.80;99.90;;;;;;5014702;28;20460;-81
2023/09/15 10:46:05;;;;;;;5.30;2.88;;;19.90;99.90;;;;;;4997378;28;20104;-82
2023/09/15 10:48:46;;;;;;;8.02;3.40;;;20.00;99.90;;;;;;5006016;28;20042;-82
2023/09/15 10:51:16;;;;;;;6.18;3.35;;;20.00;99.90;;;;;;5018308;28;20053;-81
2023/09/15 10:53:49;;;;;;;4.70;2.97;;;19.90;99.90;;;;;;5012725;28;20048;-81
2023/09/15 10:56:19;;;;;;;6.95;3.40;;;20.00;99.90;;;;;;4994189;28;20042;-82
2023/09/15 10:58:47;;;;;;;4.68;3.22;;;20.10;99.90;;;;;;5011410;28;20041;-82
2023/09/15 11:01:14;;;;;;;7.13;3.38;;;20.10;99.90;;;;;;5021014;28;20046;-82
2023/09/15 11:03:41;;;;;;;5.07;2.90;;;20.20;99.90;;;;;;5030926;28;20409;-82
2023/09/15 11:06:18;;;;;;;7.55;3.15;;;20.20;99.90;;;;;;5029029;28;20088;-82
2023/09/15 11:08:44;;;;;;;3.67;2.45;;;20.20;99.90;;;;;;5014055;28;20042;-82
2023/09/15 11:11:10;;;;;;;6.32;2.95;;;20.30;99.90;;;;;;5014202;28;20099;-83
2023/09/15 11:13:42;;;;;;;4.70;3.17;;;20.30;99.90;;;;;;4998264;28;20056;-82
2023/09/15 11:16:09;;;;;;;4.78;3.10;;;20.30;99.90;;;;;;4998107;28;20076;-82
2023/09/15 11:18:36;;;;;;;5.82;3.00;;;20.40;99.90;;;;;;5027638;28;20448;-82
2023/09/15 11:21:02;;;;;;;5.72;2.97;;;20.40;99.90;;;;;;4993264;28;20066;-82
2023/09/15 11:23:29;;;;;;;7.03;2.70;;;20.40;99.90;;;;;;5013377;28;20588;-82
2023/09/15 11:26:06;;;;;;;4.35;2.60;;;20.40;99.90;;;;;;4998042;28;20037;-81
2023/09/15 11:28:34;;;;;;;4.47;3.15;;;20.50;99.90;;;;;;5012202;28;20041;-82
2023/09/15 11:31:04;;;;;;;7.43;3.10;;;20.60;99.90;;;;;;5017687;28;20041;-81
2023/09/15 11:33:30;;;;;;;5.85;2.88;;;20.60;99.90;;;;;;5014022;28;20041;-82
2023/09/15 11:35:57;;;;;;;6.05;2.60;;;20.70;99.90;;;;;;4981545;28;20124;-83
2023/09/15 11:38:23;;;;;;;4.03;2.53;;;20.80;99.90;;;;;;5028909;28;20092;-82
2023/09/15 11:40:51;;;;;;;3.80;2.50;;;20.90;99.90;;;;;;5030038;28;20092;-82
2023/09/15 11:43:21;;;;;;;2.58;2.05;;;20.90;99.90;;;;;;5006568;28;20046;-81
2023/09/15 11:45:48;;;;;;;3.60;2.38;;;21.00;99.90;;;;;;4994404;28;20088;-82
2023/09/15 11:48:14;;;;;;;4.25;2.53;;;21.00;99.90;;;;;;5013194;28;20045;-83
2023/09/15 11:50:40;;;;;;;4.63;2.70;;;21.10;99.90;;;;;;4984138;28;20049;-82
2023/09/15 11:53:06;;;;;;;8.27;2.78;;;21.10;99.90;;;;;;5009973;28;20037;-83
2023/09/15 11:55:33;;;;;;;6.55;2.80;;;21.20;99.90;;;;;;5011524;28;20366;-83
2023/09/15 11:57:59;;;;;;;5.60;3.00;;;21.10;99.90;;;;;;4996905;28;20795;-83
2023/09/15 12:00:30;;;;;;;4.75;2.50;;;21.10;99.90;;;;;;5013422;28;20477;-81
2023/09/15 12:02:56;;;;;;;4.97;2.83;;;21.20;99.90;;;;;;5031510;28;20041;-83
2023/09/15 12:05:23;;;;;;;3.95;2.47;;;21.20;99.90;;;;;;4992507;28;20483;-83
2023/09/15 12:07:50;;;;;;;6.38;2.70;;;21.30;99.90;;;;;;5015497;28;20045;-82
2023/09/15 12:10:17;;;;;;;8.75;2.60;;;21.30;99.90;;;;;;5016432;28;20037;-83
2023/09/15 12:12:47;;;;;;;5.95;2.97;;;21.40;99.90;;;;;;5009735;28;20460;-82
2023/09/15 12:15:16;;;;;;;6.88;2.92;;;21.30;99.90;;;;;;5032142;28;20037;-82
2023/09/15 12:17:44;;;;;;;3.17;2.35;;;21.30;99.90;;;;;;5014149;28;20049;-82
2023/09/15 12:20:12;;;;;;;6.25;2.95;;;21.40;99.90;;;;;;5000274;28;20068;-81
2023/09/15 12:22:40;;;;;;;6.18;2.65;;;21.40;99.90;;;;;;5016885;28;20397;-83
2023/09/15 12:25:08;;;;;;;5.93;2.40;;;21.40;99.90;;;;;;5025232;28;20037;-83
2023/09/15 12:27:37;;;;;;;4.82;2.60;;;21.40;99.90;;;;;;5006257;28;20045;-82
2023/09/15 12:30:03;;;;;;;6.20;2.97;;;21.30;99.90;;;;;;5000215;28;20048;-82
2023/09/15 12:32:34;;;;;;;5.15;2.90;;;21.40;99.90;;;;;;5016048;28;20103;-82
2023/09/15 12:35:04;;;;;;;3.80;2.80;;;21.40;99.90;;;;;;4995563;28;20034;-81
2023/09/15 12:37:32;;;;;;;6.53;3.00;;;21.50;99.90;;;;;;5011993;28;20291;-82
2023/09/15 12:39:58;;;;;;;6.13;2.85;;;21.60;99.90;;;;;;5016944;28;20044;-82
2023/09/15 12:42:24;;;;;;;4.20;2.63;;;21.60;99.90;;;;;;5016822;28;20041;-83
2023/09/15 12:44:49;;;;;;;5.20;2.67;;;21.70;99.90;;;;;;4997017;28;20049;-82